Time;durP1;ratioP1;P1;durP2;ratioP2;P2;SDS_P1;SDS_P2;PMS_P1;PMS_P2;Temp;Humidity;BMP_temperature;BMP_pressure;BME280_temperature;BME280_humidity;BME280_pressure;Samples;Min_cycle;Max_cycle;Signal;HPM_P1;HPM_P2
2021/06/21 00:00:21;;;;;;;;;;;25.60;99.90;;;;;;5025678;28;19967;-87
2021/06/21 00:02:47;;;;;;;;;;;25.50;99.90;;;;;;5028356;28;20281;-87
2021/06/21 00:05:15;;;;;;;;;;;25.40;99.90;;;;;;5022343;28;19968;-87
2021/06/21 00:07:41;;;;;;;;;;;25.50;99.90;;;;;;5026318;28;20391;-87
2021/06/21 00:10:09;;;;;;;;;;;25.40;99.90;;;;;;5029074;28;19949;-88
2021/06/21 00:12:36;;;;;;;;;;;25.30;99.90;;;;;;5030920;28;19984;-88
2021/06/21 00:15:02;;;;;;;;;;;25.20;99.90;;;;;;5021490;28;19961;-87
2021/06/21 00:17:30;;;;;;;;;;;25.30;99.90;;;;;;5020816;28;19996;-88
2021/06/21 00:19:56;;;;;;;;;;;25.20;99.90;;;;;;5020444;28;20013;-87
2021/06/21 00:22:23;;;;;;;;;;;25.10;99.90;;;;;;5019182;28;19945;-87
2021/06/21 00:24:49;;;;;;;;;;;25.20;99.90;;;;;;5017757;28;20554;-89
2021/06/21 00:27:16;;;;;;;;;;;25.20;99.90;;;;;;5019297;28;19949;-88
2021/06/21 00:29:43;;;;;;;;;;;25.10;99.90;;;;;;5018427;28;19943;-88
2021/06/21 00:32:10;;;;;;;;;;;25.10;99.90;;;;;;5018341;28;19956;-88
2021/06/21 00:34:38;;;;;;;;;;;25.00;99.90;;;;;;5018654;28;19964;-88
2021/06/21 00:37:04;;;;;;;;;;;25.00;99.90;;;;;;5019374;28;20323;-87
2021/06/21 00:39:31;;;;;;;;;;;24.90;99.90;;;;;;5019324;28;19945;-87
2021/06/21 00:41:58;;;;;;;;;;;24.90;99.90;;;;;;5019617;28;19966;-87
2021/06/21 00:46:50;;;;;;;;;;;24.80;99.90;;;;;;5081667;22;19949;-86
2021/06/21 00:49:17;;;;;;;;;;;24.80;99.90;;;;;;5054130;28;19949;-86
2021/06/21 00:51:45;;;;;;;;;;;24.20;99.90;;;;;;5044535;28;19956;-86
2021/06/21 00:54:11;;;;;;;;;;;24.30;99.90;;;;;;5043368;28;19968;-86
2021/06/21 00:56:38;;;;;;;;;;;24.30;99.90;;;;;;5043195;28;19959;-86
2021/06/21 00:59:05;;;;;;;;;;;24.20;99.90;;;;;;5059128;28;19930;-86
2021/06/21 01:01:32;;;;;;;;;;;24.20;99.90;;;;;;5058449;28;19943;-87
2021/06/21 01:03:59;;;;;;;;;;;24.20;99.90;;;;;;5058260;28;19925;-87
2021/06/21 01:06:26;;;;;;;;;;;23.90;99.90;;;;;;5051926;28;19960;-86
2021/06/21 01:08:55;;;;;;;;;;;23.70;99.90;;;;;;5036962;28;20052;-86
2021/06/21 01:11:23;;;;;;;;;;;23.80;99.90;;;;;;5051951;28;19949;-86
2021/06/21 01:14:04;;;;;;;;;;;23.80;99.90;;;;;;5040941;28;19948;-86
2021/06/21 01:16:35;;;;;;;;;;;23.90;99.90;;;;;;5057682;28;19948;-87
2021/06/21 01:19:09;;;;;;;;;;;23.20;99.90;;;;;;5058546;28;19933;-87
2021/06/21 01:21:54;;;;;;;;;;;24.80;99.90;;;;;;5052660;28;19938;-87
2021/06/21 01:24:42;;;;;;;;;;;23.70;99.90;;;;;;5037358;28;20328;-86
2021/06/21 01:27:13;;;;;;;;;;;23.60;99.90;;;;;;5032498;28;19945;-87
2021/06/21 01:32:45;;;;;;;;;;;23.70;99.90;;;;;;5034605;28;19951;-87
2021/06/21 01:35:17;;;;;;;;;;;24.90;99.90;;;;;;5035991;28;20047;-87
2021/06/21 01:37:45;;;;;;;;;;;23.70;99.90;;;;;;5035780;28;19935;-87
2021/06/21 01:40:14;;;;;;;;;;;23.10;99.90;;;;;;5035892;28;19950;-87
2021/06/21 01:42:46;;;;;;;;;;;23.50;99.90;;;;;;5036091;28;19985;-87
2021/06/21 01:45:16;;;;;;;;;;;23.40;99.90;;;;;;5036927;28;19965;-87
2021/06/21 01:47:47;;;;;;;;;;;23.90;99.90;;;;;;5037478;28;19984;-87
2021/06/21 01:50:25;;;;;;;;;;;24.10;99.90;;;;;;5035503;28;19950;-87
2021/06/21 01:52:58;;;;;;;;;;;23.50;99.90;;;;;;5035395;28;19961;-87
2021/06/21 01:55:26;;;;;;;;;;;23.30;99.90;;;;;;5036084;28;20008;-87
2021/06/21 01:57:59;;;;;;;;;;;25.30;99.90;;;;;;5035294;28;20452;-87
2021/06/21 02:00:30;;;;;;;;;;;23.70;99.90;;;;;;5035373;28;19940;-87
2021/06/21 02:03:00;;;;;;;;;;;23.20;99.90;;;;;;5035432;28;19940;-87
2021/06/21 02:05:30;;;;;;;;;;;25.90;99.90;;;;;;5041321;28;20426;-87
2021/06/21 02:08:10;;;;;;;;;;;23.50;99.90;;;;;;5035660;28;19943;-87
2021/06/21 02:10:39;;;;;;;;;;;23.80;99.90;;;;;;5036635;28;20376;-87
2021/06/21 02:13:08;;;;;;;;;;;22.40;99.90;;;;;;5039815;28;19956;-87
2021/06/21 02:15:35;;;;;;;;;;;23.50;99.90;;;;;;5039509;28;19966;-87
2021/06/21 02:18:03;;;;;;;;;;;23.60;99.90;;;;;;5036770;28;19954;-88
2021/06/21 02:20:32;;;;;;;;;;;23.50;99.90;;;;;;5035088;28;19953;-87
2021/06/21 02:22:59;;;;;;;;;;;23.50;99.90;;;;;;5035788;28;19980;-87
2021/06/21 02:25:25;;;;;;;;;;;23.40;99.90;;;;;;5035047;28;20465;-87
2021/06/21 02:27:52;;;;;;;;;;;23.50;99.90;;;;;;5035428;28;20466;-87
2021/06/21 02:30:19;;;;;;;;;;;23.40;99.90;;;;;;5051445;28;20003;-87
2021/06/21 02:32:46;;;;;;;;;;;23.30;99.90;;;;;;5057506;28;19953;-88
2021/06/21 02:35:15;;;;;;;;;;;23.20;99.90;;;;;;5057224;28;19948;-87
2021/06/21 02:37:43;;;;;;;;;;;23.30;99.90;;;;;;5056535;28;19966;-87
2021/06/21 02:40:10;;;;;;;;;;;23.20;99.90;;;;;;5038489;28;19960;-87
2021/06/21 02:42:37;;;;;;;;;;;23.30;99.90;;;;;;5036379;28;19940;-88
2021/06/21 02:45:05;;;;;;;;;;;23.00;99.90;;;;;;5035940;28;20487;-87
2021/06/21 02:47:31;;;;;;;;;;;22.80;99.90;;;;;;5036806;28;20058;-87
2021/06/21 02:49:58;;;;;;;;;;;22.80;99.90;;;;;;5040336;28;19944;-87
2021/06/21 02:52:29;;;;;;;;;;;22.70;99.90;;;;;;5039954;28;19966;-87
2021/06/21 02:55:07;;;;;;;;;;;22.60;99.90;;;;;;5039714;28;19961;-86
2021/06/21 02:57:37;;;;;;;;;;;22.50;99.90;;;;;;5044312;28;19962;-86
2021/06/21 03:00:04;;;;;;;;;;;22.60;99.90;;;;;;5059738;28;19952;-87
2021/06/21 03:02:31;;;;;;;;;;;22.60;99.90;;;;;;5061018;28;19933;-87
2021/06/21 03:04:59;;;;;;;;;;;22.60;99.90;;;;;;5060928;28;19946;-88
2021/06/21 03:07:28;;;;;;;;;;;22.60;99.90;;;;;;5046773;28;19946;-87
2021/06/21 03:09:54;;;;;;;;;;;22.70;99.90;;;;;;5041385;28;19947;-87
2021/06/21 03:12:23;;;;;;;;;;;22.70;99.90;;;;;;5041692;28;19985;-86
2021/06/21 03:14:49;;;;;;;;;;;22.70;99.90;;;;;;5040984;28;19985;-86
2021/06/21 03:17:17;;;;;;;;;;;22.70;99.90;;;;;;5043984;28;20427;-87
2021/06/21 03:19:44;;;;;;;;;;;22.60;99.90;;;;;;5043731;28;19952;-87
2021/06/21 03:22:12;;;;;;;;;;;22.70;99.90;;;;;;5039448;28;19946;-87
2021/06/21 03:24:39;;;;;;;;;;;22.60;99.90;;;;;;5039654;28;20289;-87
2021/06/21 03:27:06;;;;;;;;;;;22.60;99.90;;;;;;5039078;28;20041;-87
2021/06/21 03:29:33;;;;;;;;;;;22.80;99.90;;;;;;5039206;28;19944;-87
2021/06/21 03:32:06;;;;;;;;;;;22.80;99.90;;;;;;5038872;28;20077;-88
2021/06/21 03:34:34;;;;;;;;;;;22.90;99.90;;;;;;5038151;28;19937;-87
2021/06/21 03:37:01;;;;;;;;;;;22.80;99.90;;;;;;5038110;28;19942;-87
2021/06/21 03:39:27;;;;;;;;;;;22.90;99.90;;;;;;5037642;28;19994;-87
2021/06/21 03:41:55;;;;;;;;;;;22.80;99.90;;;;;;5038021;28;20398;-87
2021/06/21 03:44:22;;;;;;;;;;;22.70;99.90;;;;;;5038606;28;20286;-86
2021/06/21 03:46:48;;;;;;;;;;;22.90;99.90;;;;;;5047428;28;19966;-86
2021/06/21 03:49:15;;;;;;;;;;;22.90;99.90;;;;;;5054184;28;19945;-86
2021/06/21 03:51:41;;;;;;;;;;;23.00;99.90;;;;;;5056816;28;19974;-87
2021/06/21 03:54:08;;;;;;;;;;;22.80;99.90;;;;;;5039596;28;19970;-86
2021/06/21 03:56:34;;;;;;;;;;;22.70;99.90;;;;;;5039353;28;19961;-86
2021/06/21 03:59:02;;;;;;;;;;;22.90;99.90;;;;;;5037787;28;19944;-86
2021/06/21 04:01:28;;;;;;;;;;;23.00;99.90;;;;;;5037579;28;20347;-87
2021/06/21 04:03:59;;;;;;;;;;;22.90;99.90;;;;;;5038044;28;19944;-87
2021/06/21 04:06:26;;;;;;;;;;;23.00;99.90;;;;;;5038357;28;19970;-86
2021/06/21 04:08:52;;;;;;;;;;;22.80;99.90;;;;;;5039743;28;19994;-87
2021/06/21 04:11:19;;;;;;;;;;;22.80;99.90;;;;;;5039191;28;19993;-86
2021/06/21 04:13:45;;;;;;;;;;;22.90;99.90;;;;;;5038847;28;19968;-87
2021/06/21 04:16:13;;;;;;;;;;;22.90;99.90;;;;;;5038987;28;19959;-86
2021/06/21 04:18:39;;;;;;;;;;;22.80;99.90;;;;;;5038899;28;19945;-87
2021/06/21 04:21:06;;;;;;;;;;;23.20;99.90;;;;;;5039532;28;19942;-86
2021/06/21 04:23:32;;;;;;;;;;;22.70;99.90;;;;;;5038922;28;19970;-86
2021/06/21 04:25:59;;;;;;;;;;;22.60;99.90;;;;;;5038083;28;19962;-87
2021/06/21 04:28:25;;;;;;;;;;;22.70;99.90;;;;;;5038453;28;19990;-87
2021/06/21 04:30:52;;;;;;;;;;;22.80;99.90;;;;;;5037782;28;19993;-87
2021/06/21 04:33:19;;;;;;;;;;;22.70;99.90;;;;;;5039109;28;20313;-87
2021/06/21 04:35:46;;;;;;;;;;;22.80;99.90;;;;;;5044151;28;19994;-87
2021/06/21 04:38:13;;;;;;;;;;;22.70;99.90;;;;;;5044598;28;19944;-87
2021/06/21 04:40:39;;;;;;;;;;;22.70;99.90;;;;;;5043093;28;19946;-87
2021/06/21 04:43:06;;;;;;;;;;;22.80;99.90;;;;;;5038126;28;19948;-87
2021/06/21 04:45:32;;;;;;;;;;;22.90;99.90;;;;;;5038458;28;19969;-87
2021/06/21 04:47:59;;;;;;;;;;;22.90;99.90;;;;;;5037433;28;19943;-87
2021/06/21 04:50:27;;;;;;;;;;;22.60;99.90;;;;;;5037063;28;19969;-87
2021/06/21 04:52:53;;;;;;;;;;;22.80;99.90;;;;;;5036424;28;19968;-87
2021/06/21 04:55:20;;;;;;;;;;;22.80;99.90;;;;;;5047546;28;20048;-87
2021/06/21 04:57:47;;;;;;;;;;;22.90;99.90;;;;;;5043005;28;19941;-87
2021/06/21 05:00:15;;;;;;;;;;;22.80;99.90;;;;;;5037659;28;19943;-87
2021/06/21 05:02:42;;;;;;;;;;;22.70;99.90;;;;;;5036835;28;19992;-87
2021/06/21 05:05:09;;;;;;;;;;;22.70;99.90;;;;;;5043218;28;19958;-87
2021/06/21 05:07:37;;;;;;;;;;;22.70;99.90;;;;;;5040562;28;19989;-87
2021/06/21 05:10:04;;;;;;;;;;;22.90;99.90;;;;;;5039297;28;19990;-86
2021/06/21 05:12:30;;;;;;;;;;;23.00;99.90;;;;;;5040914;28;19961;-87
2021/06/21 05:14:57;;;;;;;;;;;22.80;99.90;;;;;;5045117;28;19962;-86
2021/06/21 05:17:23;;;;;;;;;;;22.90;99.90;;;;;;5044027;28;19996;-87
2021/06/21 05:19:50;;;;;;;;;;;22.90;99.90;;;;;;5044181;28;19967;-87
2021/06/21 05:22:16;;;;;;;;;;;22.80;99.90;;;;;;5044734;28;19943;-87
2021/06/21 05:24:44;;;;;;;;;;;22.70;99.90;;;;;;5045288;28;19994;-86
2021/06/21 05:27:10;;;;;;;;;;;22.60;99.90;;;;;;5047039;28;19952;-87
2021/06/21 05:29:37;;;;;;;;;;;22.70;99.90;;;;;;5042061;28;19972;-87
2021/06/21 05:32:04;;;;;;;;;;;22.70;99.90;;;;;;5040451;28;19957;-86
2021/06/21 05:34:30;;;;;;;;;;;22.80;99.90;;;;;;5038011;28;20011;-87
2021/06/21 05:36:57;;;;;;;;;;;22.90;99.90;;;;;;5037679;28;19945;-87
2021/06/21 05:39:24;;;;;;;;;;;22.90;99.90;;;;;;5036259;28;19945;-87
2021/06/21 05:41:52;;;;;;;;;;;22.70;99.90;;;;;;5036966;28;19939;-86
2021/06/21 05:44:19;;;;;;;;;;;22.60;99.90;;;;;;5049026;28;19965;-87
2021/06/21 05:46:46;;;;;;;;;;;22.70;99.90;;;;;;5058126;28;19955;-87
2021/06/21 05:49:12;;;;;;;;;;;22.70;99.90;;;;;;5058638;28;19931;-87
2021/06/21 05:51:39;;;;;;;;;;;22.60;99.90;;;;;;5043831;28;19943;-86
2021/06/21 05:54:05;;;;;;;;;;;22.60;99.90;;;;;;5035509;28;19957;-86
2021/06/21 05:56:32;;;;;;;;;;;22.70;99.90;;;;;;5047090;28;19958;-87
2021/06/21 05:59:00;;;;;;;;;;;22.60;99.90;;;;;;5056893;28;19927;-88
2021/06/21 06:01:27;;;;;;;;;;;22.50;99.90;;;;;;5057524;28;19948;-87
2021/06/21 06:03:53;;;;;;;;;;;22.50;99.90;;;;;;5057483;28;19942;-87
2021/06/21 06:06:20;;;;;;;;;;;22.50;99.90;;;;;;5046716;28;19968;-87
2021/06/21 06:08:49;;;;;;;;;;;22.80;99.90;;;;;;5038952;28;19990;-87
2021/06/21 06:11:16;;;;;;;;;;;22.70;99.90;;;;;;5040235;28;20014;-87
2021/06/21 06:13:42;;;;;;;;;;;23.10;99.90;;;;;;5036827;28;20014;-87
2021/06/21 06:16:10;;;;;;;;;;;22.70;99.90;;;;;;5035722;28;20007;-87
2021/06/21 06:18:38;;;;;;;;;;;24.30;99.90;;;;;;5040082;28;19946;-87
2021/06/21 06:21:05;;;;;;;;;;;22.50;99.90;;;;;;5037792;28;19970;-87
2021/06/21 06:23:32;;;;;;;;;;;23.00;99.90;;;;;;5041763;28;19947;-87
2021/06/21 06:25:58;;;;;;;;;;;23.20;99.90;;;;;;5041524;28;19966;-87
2021/06/21 06:28:25;;;;;;;;;;;23.10;99.90;;;;;;5041485;28;19973;-87
2021/06/21 06:30:53;;;;;;;;;;;24.30;99.90;;;;;;5043025;28;19954;-87
2021/06/21 06:33:26;;;;;;;;;;;23.80;99.90;;;;;;5057033;28;19982;-87
2021/06/21 06:35:52;;;;;;;;;;;23.50;99.90;;;;;;5058564;28;19959;-87
2021/06/21 06:38:19;;;;;;;;;;;26.50;99.90;;;;;;5060670;28;19977;-86
2021/06/21 06:40:46;;;;;;;;;;;24.00;99.90;;;;;;5059877;28;19979;-86
2021/06/21 06:43:13;;;;;;;;;;;24.10;99.90;;;;;;5058424;28;19943;-87
2021/06/21 06:45:40;;;;;;;;;;;24.10;99.90;;;;;;5059574;28;20031;-87
2021/06/21 06:48:07;;;;;;;;;;;24.10;99.90;;;;;;5059830;28;19987;-85
2021/06/21 06:50:37;;;;;;;;;;;24.20;99.90;;;;;;5060354;28;20021;-87
2021/06/21 06:53:04;;;;;;;;;;;24.80;99.90;;;;;;5060311;28;19983;-85
2021/06/21 06:58:19;;;;;;;;;;;24.30;99.90;;;;;;5060345;28;19944;-85
2021/06/21 07:00:50;;;;;;;;;;;24.20;99.90;;;;;;5059755;28;19945;-85
2021/06/21 07:03:16;;;;;;;;;;;23.40;99.90;;;;;;5059831;28;19941;-85
2021/06/21 07:05:47;;;;;;;;;;;25.20;99.90;;;;;;5060531;28;19964;-87
2021/06/21 07:08:14;;;;;;;;;;;24.20;99.90;;;;;;5055900;28;19966;-86
2021/06/21 07:10:43;;;;;;;;;;;25.40;99.90;;;;;;5044772;28;19942;-85
2021/06/21 07:13:13;;;;;;;;;;;25.00;99.90;;;;;;5043952;28;20431;-85
2021/06/21 07:15:40;;;;;;;;;;;25.00;99.90;;;;;;5042471;28;19959;-85
2021/06/21 07:18:07;;;;;;;;;;;25.00;99.90;;;;;;5043550;28;19950;-85
2021/06/21 07:20:33;;;;;;;;;;;24.80;99.90;;;;;;5043483;28;19966;-87
2021/06/21 07:23:01;;;;;;;;;;;24.90;99.90;;;;;;5043671;28;19946;-86
2021/06/21 07:25:27;;;;;;;;;;;25.00;99.90;;;;;;5043138;28;19962;-85
2021/06/21 07:27:54;;;;;;;;;;;25.20;99.90;;;;;;5042068;28;19946;-86
2021/06/21 07:30:21;;;;;;;;;;;25.20;99.90;;;;;;5043338;28;20399;-86
2021/06/21 07:32:48;;;;;;;;;;;25.40;99.90;;;;;;5044770;28;19947;-86
2021/06/21 07:35:15;;;;;;;;;;;25.40;99.90;;;;;;5042982;28;20305;-86
2021/06/21 07:37:42;;;;;;;;;;;25.30;99.90;;;;;;5045069;28;19957;-86
2021/06/21 07:40:10;;;;;;;;;;;25.50;99.90;;;;;;5041857;28;20002;-87
2021/06/21 07:42:37;;;;;;;;;;;25.60;99.90;;;;;;5042163;28;19942;-86
2021/06/21 07:45:04;;;;;;;;;;;25.80;99.90;;;;;;5045383;28;20018;-86
2021/06/21 07:47:31;;;;;;;;;;;25.70;99.90;;;;;;5043311;28;19943;-87
2021/06/21 07:50:00;;;;;;;;;;;25.70;99.90;;;;;;5043688;28;20017;-86
2021/06/21 07:52:29;;;;;;;;;;;25.80;99.90;;;;;;5041371;28;19936;-86
2021/06/21 07:55:02;;;;;;;;;;;25.70;99.90;;;;;;5043184;28;20332;-86
2021/06/21 07:57:32;;;;;;;;;;;26.20;99.90;;;;;;5043683;28;20286;-86
2021/06/21 07:59:59;;;;;;;;;;;27.40;99.90;;;;;;5042516;28;19951;-86
2021/06/21 08:02:29;;;;;;;;;;;26.00;99.90;;;;;;5044638;28;20461;-87
2021/06/21 08:05:01;;;;;;;;;;;24.80;99.90;;;;;;5044034;28;20002;-87
2021/06/21 08:07:28;;;;;;;;;;;27.90;99.90;;;;;;5043405;28;19952;-87
2021/06/21 08:09:56;;;;;;;;;;;28.60;99.90;;;;;;5046757;28;20011;-86
2021/06/21 08:12:23;;;;;;;;;;;25.20;99.90;;;;;;5047468;28;19956;-86
2021/06/21 08:14:51;;;;;;;;;;;25.40;99.90;;;;;;5042753;28;19961;-86
2021/06/21 08:17:20;;;;;;;;;;;28.20;99.90;;;;;;5040113;28;19952;-87
2021/06/21 08:38:52;;;;;;;;;;;27.10;99.90;;;;;;4931644;29;19996;-86
2021/06/21 08:42:09;;;;;;;;;;;;;;;;;;;;;
2021/06/21 08:51:00;;;;;;;;;;;26.40;99.90;;;;;;4847659;29;19977;-85
2021/06/21 08:56:36;;;;;;;;;;;27.10;99.90;;;;;;4943960;29;20002;-86
2021/06/21 08:59:33;;;;;;;;;;;27.10;99.90;;;;;;4978730;28;19955;-84
2021/06/21 09:19:16;;;;;;;5.70;2.70;;;27.50;99.90;;;;;;4963532;26;20555;-91
2021/06/21 09:22:01;;;;;;;12.80;10.53;;;29.40;99.90;;;;;;5042876;28;21012;-92
2021/06/21 09:27:23;;;;;;;8.43;5.20;;;27.80;99.90;;;;;;5039372;28;20531;-93
2021/06/21 09:30:24;;;;;;;6.30;2.83;;;27.30;99.90;;;;;;5039044;28;20444;-92
2021/06/21 09:33:11;;;;;;;4.50;3.50;;;27.50;99.90;;;;;;5040893;28;20462;-93
2021/06/21 09:35:45;;;;;;;4.00;3.50;;;27.20;99.90;;;;;;5040697;28;20781;-93
2021/06/21 09:38:26;;;;;;;7.60;3.30;;;27.20;99.90;;;;;;5039119;28;20503;-93
2021/06/21 09:40:55;;;;;;;4.60;3.37;;;27.20;99.90;;;;;;5039832;28;20865;-92
2021/06/21 09:43:38;;;;;;;5.93;3.77;;;27.20;99.90;;;;;;5040651;28;20488;-92
2021/06/21 09:46:18;;;;;;;6.17;4.50;;;27.30;99.90;;;;;;5042502;28;20791;-92
2021/06/21 09:48:58;;;;;;;5.13;4.47;;;26.40;99.90;;;;;;5042379;28;20430;-93
2021/06/21 09:51:33;;;;;;;4.87;3.50;;;27.40;99.90;;;;;;5048650;28;20410;-92
2021/06/21 09:54:11;;;;;;;6.20;5.20;;;27.30;99.90;;;;;;5053869;28;20532;-92
2021/06/21 09:56:46;;;;;;;10.33;4.57;;;27.40;99.90;;;;;;5042623;28;20505;-92
2021/06/21 09:59:31;;;;;;;6.17;4.20;;;27.20;99.90;;;;;;5041475;28;20477;-93
2021/06/21 10:02:12;;;;;;;6.57;4.77;;;27.40;99.90;;;;;;5039822;28;20455;-94
2021/06/21 10:04:53;;;;;;;7.20;5.87;;;27.80;99.90;;;;;;5039574;28;20823;-93
2021/06/21 10:07:31;;;;;;;5.87;4.67;;;27.70;99.90;;;;;;5039413;28;20451;-92
2021/06/21 10:10:07;;;;;;;5.73;4.60;;;27.50;99.90;;;;;;5039896;28;20449;-93
2021/06/21 10:12:59;;;;;;;7.77;3.90;;;27.70;99.90;;;;;;5039482;28;20524;-94
2021/06/21 10:16:03;;;;;;;7.70;4.80;;;27.50;99.90;;;;;;5021940;28;20470;-93
2021/06/21 10:18:33;;;;;;;5.43;3.33;;;27.40;99.90;;;;;;5026844;28;20972;-93
2021/06/21 10:21:03;;;;;;;6.00;5.43;;;27.70;99.90;;;;;;5028097;28;20469;-93
2021/06/21 10:26:17;;;;;;;5.40;4.20;;;27.80;99.90;;;;;;5025278;28;20477;-91
2021/06/21 10:28:53;;;;;;;5.93;4.53;;;27.70;99.90;;;;;;5037554;28;20514;-92
2021/06/21 10:31:26;;;;;;;6.07;4.57;;;27.80;99.90;;;;;;5032240;28;20470;-93
2021/06/21 10:33:59;;;;;;;5.37;4.87;;;27.50;99.90;;;;;;5025719;28;20438;-93
2021/06/21 10:36:45;;;;;;;5.17;4.67;;;27.20;99.90;;;;;;5028219;28;20469;-93
2021/06/21 10:42:27;;;;;;;10.90;5.37;;;27.40;99.90;;;;;;5521160;22;20501;-92
2021/06/21 10:44:58;;;;;;;16.30;5.63;;;27.90;99.90;;;;;;5029065;28;20458;-93
2021/06/21 10:47:38;;;;;;;9.13;5.97;;;28.00;99.90;;;;;;5040374;28;20470;-92
2021/06/21 10:50:22;;;;;;;5.37;4.30;;;28.10;99.90;;;;;;5040469;28;20449;-92
2021/06/21 10:53:04;;;;;;;8.80;4.70;;;28.20;99.90;;;;;;5026749;28;20452;-92
2021/06/21 10:55:42;;;;;;;8.80;4.93;;;28.00;99.90;;;;;;5057425;23;20543;-85
2021/06/21 10:58:30;;;;;;;7.83;6.27;;;27.90;99.90;;;;;;5039167;28;20468;-86
2021/06/21 11:00:57;;;;;;;6.20;5.63;;;28.00;99.90;;;;;;5038290;28;20442;-85
2021/06/21 11:03:35;;;;;;;9.50;5.43;;;28.00;99.90;;;;;;5038238;28;20488;-85
2021/06/21 11:06:04;;;;;;;8.20;5.90;;;28.00;99.90;;;;;;5039721;28;20576;-86
2021/06/21 11:08:45;;;;;;;6.60;5.17;;;28.10;99.90;;;;;;5039257;28;21065;-85
2021/06/21 11:11:54;;;;;;;6.93;4.93;;;28.10;99.90;;;;;;5039252;28;20491;-84
2021/06/21 11:14:28;;;;;;;8.73;6.83;;;28.20;99.90;;;;;;5038707;28;20441;-86
2021/06/21 11:17:17;;;;;;;7.97;5.57;;;28.30;99.90;;;;;;5038837;28;20966;-85
2021/06/21 11:19:44;;;;;;;5.60;5.00;;;28.40;99.90;;;;;;5040540;28;20458;-85
2021/06/21 11:22:12;;;;;;;8.80;5.10;;;28.50;99.90;;;;;;5039738;28;20447;-86
2021/06/21 11:24:51;;;;;;;6.00;4.30;;;28.60;99.90;;;;;;5040335;28;20487;-86
2021/06/21 11:27:20;;;;;;;6.00;5.40;;;28.60;99.90;;;;;;5038530;28;20449;-86
2021/06/21 11:29:49;;;;;;;7.27;4.30;;;28.50;99.90;;;;;;5039534;28;20446;-85
2021/06/21 11:32:17;;;;;;;6.57;5.10;;;28.40;99.90;;;;;;5039292;28;20453;-86
2021/06/21 11:34:49;;;;;;;6.37;4.57;;;28.40;99.90;;;;;;5038312;28;20821;-85
2021/06/21 11:37:38;;;;;;;6.73;4.93;;;28.50;99.90;;;;;;5039804;28;20953;-86
2021/06/21 11:40:28;;;;;;;6.97;4.60;;;28.40;99.90;;;;;;5038587;28;20441;-85
2021/06/21 11:43:17;;;;;;;8.13;5.50;;;28.50;99.90;;;;;;5040761;28;20435;-85
2021/06/21 11:45:57;;;;;;;4.60;4.10;;;28.50;99.90;;;;;;5040021;28;20481;-86
2021/06/21 11:48:30;;;;;;;6.33;4.40;;;28.50;99.90;;;;;;5038018;28;20491;-86
2021/06/21 11:50:58;;;;;;;9.53;4.30;;;28.60;99.90;;;;;;5053237;28;20461;-84
2021/06/21 11:53:26;;;;;;;5.70;4.87;;;28.60;99.90;;;;;;5051115;28;20435;-86
2021/06/21 11:55:54;;;;;;;5.90;4.60;;;28.80;99.90;;;;;;5051207;28;20471;-85
2021/06/21 11:58:25;;;;;;;8.80;7.27;;;28.80;99.90;;;;;;5055206;28;20438;-86
2021/06/21 12:00:52;;;;;;;6.13;4.53;;;28.90;99.90;;;;;;5039515;28;20491;-86
2021/06/21 12:03:20;;;;;;;9.30;5.90;;;28.90;99.90;;;;;;5038942;28;20497;-86
2021/06/21 12:05:54;;;;;;;7.43;6.43;;;28.90;99.90;;;;;;5040466;28;20506;-86
2021/06/21 12:08:22;;;;;;;13.93;5.33;;;29.00;99.90;;;;;;5038060;28;20811;-86
2021/06/21 12:10:49;;;;;;;7.00;5.50;;;29.00;99.90;;;;;;5037878;28;20485;-86
2021/06/21 12:13:21;;;;;;;5.70;3.80;;;29.10;99.90;;;;;;5041230;28;20458;-86
2021/06/21 12:15:48;;;;;;;13.67;5.37;;;29.00;99.90;;;;;;5038931;28;20481;-85
2021/06/21 12:18:25;;;;;;;6.20;4.57;;;29.00;99.90;;;;;;5037400;28;20454;-85
2021/06/21 12:20:52;;;;;;;6.97;4.23;;;29.00;99.90;;;;;;5039858;28;20418;-86
2021/06/21 12:23:19;;;;;;;9.80;4.67;;;28.90;99.90;;;;;;5046993;28;20431;-85
2021/06/21 12:25:48;;;;;;;7.80;4.60;;;28.70;99.90;;;;;;5057047;28;20470;-85
2021/06/21 12:28:16;;;;;;;12.20;4.73;;;28.70;99.90;;;;;;5057413;28;20431;-86
2021/06/21 12:30:49;;;;;;;7.30;3.70;;;28.90;99.90;;;;;;5057493;28;20461;-84
2021/06/21 12:33:32;;;;;;;3.83;3.00;;;29.20;99.90;;;;;;5057728;28;20462;-85
2021/06/21 12:36:14;;;;;;;5.50;3.70;;;29.30;99.90;;;;;;5057900;28;20474;-83
2021/06/21 12:38:44;;;;;;;4.63;4.17;;;29.40;99.90;;;;;;5057902;28;20481;-83
2021/06/21 12:41:17;;;;;;;5.03;4.23;;;29.40;99.90;;;;;;5057762;28;20453;-84
2021/06/21 12:43:55;;;;;;;5.73;3.70;;;29.40;99.90;;;;;;5057070;28;20509;-85
2021/06/21 12:46:25;;;;;;;4.90;3.93;;;29.40;99.90;;;;;;5053611;28;20478;-85
2021/06/21 12:48:53;;;;;;;5.73;3.90;;;29.50;99.90;;;;;;5054703;28;20443;-86
2021/06/21 12:51:20;;;;;;;4.80;3.90;;;29.50;99.90;;;;;;5054488;28;20423;-86
2021/06/21 12:53:49;;;;;;;5.33;3.90;;;29.60;99.90;;;;;;5053461;28;20447;-87
2021/06/21 12:56:24;;;;;;;10.13;4.20;;;29.50;99.90;;;;;;5053929;28;20486;-85
2021/06/21 12:58:51;;;;;;;9.57;3.93;;;29.60;99.90;;;;;;5054006;28;20438;-85
2021/06/21 13:01:25;;;;;;;3.23;3.03;;;29.50;99.90;;;;;;5054431;28;20506;-86
2021/06/21 13:03:52;;;;;;;4.63;3.37;;;29.60;99.90;;;;;;5054946;28;20455;-85
2021/06/21 13:06:37;;;;;;;8.00;4.50;;;29.50;99.90;;;;;;5055958;28;20499;-86
2021/06/21 13:09:07;;;;;;;5.47;3.70;;;29.70;99.90;;;;;;5055361;28;20446;-85
2021/06/21 13:11:49;;;;;;;6.70;4.30;;;29.70;99.90;;;;;;5055508;28;20435;-85
2021/06/21 13:14:16;;;;;;;5.13;3.30;;;29.80;99.90;;;;;;5056095;28;20441;-85
2021/06/21 13:16:44;;;;;;;8.47;4.13;;;29.90;99.90;;;;;;5056830;28;20485;-85
2021/06/21 13:19:13;;;;;;;7.37;3.60;;;30.10;99.90;;;;;;5057437;28;20443;-83
2021/06/21 13:21:43;;;;;;;12.80;4.47;;;30.20;99.90;;;;;;5057482;28;20453;-82
2021/06/21 13:24:11;;;;;;;5.90;3.97;;;30.20;99.90;;;;;;5057273;28;20493;-84
2021/06/21 13:26:40;;;;;;;6.90;4.30;;;30.30;99.90;;;;;;5053857;28;20439;-85
2021/06/21 13:29:24;;;;;;;8.53;3.80;;;30.30;99.90;;;;;;5047501;28;20450;-85
2021/06/21 13:31:56;;;;;;;4.00;2.87;;;30.30;99.90;;;;;;5046840;28;20465;-87
2021/06/21 13:34:45;;;;;;;7.43;3.87;;;30.20;99.90;;;;;;5047691;28;20493;-86
2021/06/21 13:37:16;;;;;;;6.37;4.07;;;30.20;99.90;;;;;;5041762;28;20506;-86
2021/06/21 13:40:04;;;;;;;6.30;3.77;;;30.10;99.90;;;;;;5041374;28;20466;-86
2021/06/21 13:42:42;;;;;;;6.13;3.97;;;30.20;99.90;;;;;;5042803;28;20797;-86
2021/06/21 13:45:20;;;;;;;8.60;4.83;;;30.30;99.90;;;;;;5041631;28;20482;-86
2021/06/21 13:47:55;;;;;;;5.00;3.63;;;31.30;99.90;;;;;;5042917;28;20797;-85
2021/06/21 13:50:30;;;;;;;9.90;4.53;;;30.20;99.90;;;;;;5044366;28;20444;-86
2021/06/21 13:53:03;;;;;;;8.30;4.30;;;;;;;;;;5043726;28;20455;-86
2021/06/21 13:55:42;;;;;;;12.23;4.90;;;30.30;99.90;;;;;;5050178;28;20478;-86
2021/06/21 13:58:09;;;;;;;5.83;3.00;;;30.40;99.90;;;;;;5047186;28;20454;-86
2021/06/21 14:00:44;;;;;;;9.87;4.90;;;30.50;99.90;;;;;;5051224;28;20443;-85
2021/06/21 14:03:29;;;;;;;13.30;6.47;;;30.50;99.90;;;;;;5049228;28;20438;-86
2021/06/21 14:06:01;;;;;;;7.50;4.30;;;30.50;99.90;;;;;;5045874;28;20513;-86
2021/06/21 14:08:33;;;;;;;11.60;7.27;;;30.70;99.90;;;;;;5055406;28;20439;-87
2021/06/21 14:11:05;;;;;;;8.17;3.70;;;30.80;99.90;;;;;;5060156;28;20498;-85
2021/06/21 14:13:32;;;;;;;8.80;3.20;;;30.80;99.90;;;;;;5059953;28;20425;-85
2021/06/21 14:16:23;;;;;;;5.70;3.60;;;30.80;99.90;;;;;;5059112;28;20446;-85
2021/06/21 14:19:13;;;;;;;7.87;3.83;;;30.90;99.90;;;;;;5043028;28;20454;-87
2021/06/21 14:21:45;;;;;;;8.47;3.60;;;30.90;99.90;;;;;;5049746;28;20498;-86
2021/06/21 14:24:13;;;;;;;6.07;3.77;;;;;;;;;;5047809;28;20462;-85
2021/06/21 14:27:05;;;;;;;9.10;4.50;;;30.90;99.90;;;;;;5055745;28;20447;-86
2021/06/21 14:29:33;;;;;;;6.80;3.87;;;31.10;99.90;;;;;;4994112;28;20463;-86
2021/06/21 14:32:01;;;;;;;19.07;15.30;;;;;;;;;;5043155;28;20447;-86
2021/06/21 14:34:35;;;;;;;7.43;4.43;;;31.10;99.90;;;;;;5045275;28;20463;-86
2021/06/21 14:37:16;;;;;;;33.43;29.97;;;30.90;99.90;;;;;;5043923;28;20438;-86
2021/06/21 14:39:52;;;;;;;10.13;5.43;;;30.80;99.90;;;;;;5041218;28;20533;-86
2021/06/21 14:42:27;;;;;;;4.40;3.17;;;30.10;99.90;;;;;;5042088;28;20431;-86
2021/06/21 14:45:01;;;;;;;9.53;4.83;;;29.90;99.90;;;;;;5047726;28;20490;-86
2021/06/21 14:47:41;;;;;;;7.73;4.63;;;32.70;99.90;;;;;;5050182;28;20444;-86
2021/06/21 14:50:15;;;;;;;32.43;27.20;;;31.10;99.90;;;;;;5049551;28;20521;-85
2021/06/21 14:52:44;;;;;;;7.83;5.60;;;31.00;99.90;;;;;;5057468;28;20461;-85
2021/06/21 14:55:14;;;;;;;10.87;8.10;;;30.80;99.90;;;;;;5046252;28;20485;-86
2021/06/21 14:57:51;;;;;;;29.40;24.70;;;30.80;99.90;;;;;;5049167;28;20461;-85
2021/06/21 15:00:45;;;;;;;28.40;25.03;;;30.80;99.90;;;;;;5055158;28;20435;-86
2021/06/21 15:03:12;;;;;;;7.30;4.60;;;;;;;;;;5056151;28;20454;-86
2021/06/21 15:05:51;;;;;;;12.90;6.03;;;30.40;98.60;;;;;;5052218;28;20965;-86